sensor_id;sensor_type;location;lat;lon;timestamp;P1;durP1;ratioP1;P2;durP2;ratioP2
69172;SDS011;56280;49.662;8.408;2022-12-18T00:02:12;177.90;;;51.83;;
69172;SDS011;56280;49.662;8.408;2022-12-18T00:04:37;132.90;;;50.47;;
69172;SDS011;56280;49.662;8.408;2022-12-18T00:07:02;153.07;;;48.93;;
69172;SDS011;56280;49.662;8.408;2022-12-18T00:09:28;172.67;;;51.10;;
69172;SDS011;56280;49.662;8.408;2022-12-18T00:11:53;152.27;;;49.00;;
69172;SDS011;56280;49.662;8.408;2022-12-18T00:14:19;167.17;;;48.87;;
69172;SDS011;56280;49.662;8.408;2022-12-18T00:16:44;183.67;;;49.87;;
69172;SDS011;56280;49.662;8.408;2022-12-18T00:19:10;278.43;;;52.70;;
69172;SDS011;56280;49.662;8.408;2022-12-18T00:21:36;234.10;;;53.20;;
69172;SDS011;56280;49.662;8.408;2022-12-18T00:24:01;203.23;;;50.60;;
69172;SDS011;56280;49.662;8.408;2022-12-18T00:26:31;327.80;;;59.57;;
69172;SDS011;56280;49.662;8.408;2022-12-18T00:29:02;229.68;;;53.28;;
69172;SDS011;56280;49.662;8.408;2022-12-18T00:31:30;244.10;;;51.65;;
69172;SDS011;56280;49.662;8.408;2022-12-18T00:33:56;247.97;;;52.40;;
69172;SDS011;56280;49.662;8.408;2022-12-18T00:36:23;214.95;;;51.83;;
69172;SDS011;56280;49.662;8.408;2022-12-18T00:38:49;227.25;;;51.95;;
69172;SDS011;56280;49.662;8.408;2022-12-18T00:41:16;175.73;;;48.58;;
69172;SDS011;56280;49.662;8.408;2022-12-18T00:44:02;149.75;;;50.65;;
69172;SDS011;56280;49.662;8.408;2022-12-18T00:46:28;139.90;;;46.47;;
69172;SDS011;56280;49.662;8.408;2022-12-18T00:48:53;164.60;;;48.03;;
69172;SDS011;56280;49.662;8.408;2022-12-18T00:51:18;143.20;;;47.47;;
69172;SDS011;56280;49.662;8.408;2022-12-18T00:53:44;127.77;;;48.77;;
69172;SDS011;56280;49.662;8.408;2022-12-18T00:56:09;143.63;;;49.40;;
69172;SDS011;56280;49.662;8.408;2022-12-18T00:58:34;144.33;;;50.50;;
69172;SDS011;56280;49.662;8.408;2022-12-18T01:01:03;143.38;;;50.45;;
69172;SDS011;56280;49.662;8.408;2022-12-18T01:03:31;122.57;;;51.30;;
69172;SDS011;56280;49.662;8.408;2022-12-18T01:05:57;117.93;;;49.10;;
69172;SDS011;56280;49.662;8.408;2022-12-18T01:08:22;107.40;;;45.00;;
69172;SDS011;56280;49.662;8.408;2022-12-18T01:10:48;111.50;;;48.37;;
69172;SDS011;56280;49.662;8.408;2022-12-18T01:13:13;155.20;;;50.10;;
69172;SDS011;56280;49.662;8.408;2022-12-18T01:15:39;101.83;;;46.23;;
69172;SDS011;56280;49.662;8.408;2022-12-18T01:18:04;128.65;;;47.58;;
69172;SDS011;56280;49.662;8.408;2022-12-18T01:20:30;121.10;;;49.28;;
69172;SDS011;56280;49.662;8.408;2022-12-18T01:22:56;151.23;;;51.17;;
69172;SDS011;56280;49.662;8.408;2022-12-18T01:25:21;157.80;;;53.23;;
69172;SDS011;56280;49.662;8.408;2022-12-18T01:27:46;120.60;;;48.73;;
69172;SDS011;56280;49.662;8.408;2022-12-18T01:30:12;151.30;;;49.83;;
69172;SDS011;56280;49.662;8.408;2022-12-18T01:32:37;131.40;;;48.00;;
69172;SDS011;56280;49.662;8.408;2022-12-18T01:35:03;174.55;;;53.90;;
69172;SDS011;56280;49.662;8.408;2022-12-18T01:37:28;111.80;;;47.60;;
69172;SDS011;56280;49.662;8.408;2022-12-18T01:39:54;167.60;;;51.93;;
69172;SDS011;56280;49.662;8.408;2022-12-18T01:42:19;208.17;;;54.37;;
69172;SDS011;56280;49.662;8.408;2022-12-18T01:45:00;248.80;;;56.08;;
69172;SDS011;56280;49.662;8.408;2022-12-18T01:47:30;127.10;;;49.17;;
69172;SDS011;56280;49.662;8.408;2022-12-18T01:50:00;133.30;;;51.08;;
69172;SDS011;56280;49.662;8.408;2022-12-18T01:52:30;153.02;;;49.13;;
69172;SDS011;56280;49.662;8.408;2022-12-18T01:54:57;138.75;;;49.50;;
69172;SDS011;56280;49.662;8.408;2022-12-18T01:57:23;204.40;;;51.88;;
69172;SDS011;56280;49.662;8.408;2022-12-18T01:59:51;204.83;;;51.07;;
69172;SDS011;56280;49.662;8.408;2022-12-18T02:02:18;167.40;;;51.40;;
69172;SDS011;56280;49.662;8.408;2022-12-18T02:04:45;153.50;;;50.92;;
69172;SDS011;56280;49.662;8.408;2022-12-18T02:07:23;138.97;;;48.87;;
69172;SDS011;56280;49.662;8.408;2022-12-18T02:10:06;125.78;;;49.05;;
69172;SDS011;56280;49.662;8.408;2022-12-18T02:12:46;120.47;;;50.33;;
69172;SDS011;56280;49.662;8.408;2022-12-18T02:15:19;117.75;;;49.53;;
69172;SDS011;56280;49.662;8.408;2022-12-18T02:17:57;137.07;;;52.83;;
69172;SDS011;56280;49.662;8.408;2022-12-18T02:25:40;115.78;;;49.45;;
69172;SDS011;56280;49.662;8.408;2022-12-18T02:28:20;102.30;;;48.27;;
69172;SDS011;56280;49.662;8.408;2022-12-18T02:30:49;124.18;;;52.17;;
69172;SDS011;56280;49.662;8.408;2022-12-18T02:33:18;125.38;;;53.45;;
69172;SDS011;56280;49.662;8.408;2022-12-18T02:35:45;123.78;;;51.13;;
69172;SDS011;56280;49.662;8.408;2022-12-18T02:38:13;102.00;;;46.33;;
69172;SDS011;56280;49.662;8.408;2022-12-18T02:40:40;108.05;;;47.28;;
69172;SDS011;56280;49.662;8.408;2022-12-18T02:43:10;112.87;;;49.03;;
69172;SDS011;56280;49.662;8.408;2022-12-18T02:45:48;124.13;;;48.03;;
69172;SDS011;56280;49.662;8.408;2022-12-18T02:48:24;116.00;;;51.00;;
69172;SDS011;56280;49.662;8.408;2022-12-18T02:50:58;115.37;;;50.10;;
69172;SDS011;56280;49.662;8.408;2022-12-18T02:53:33;110.05;;;47.83;;
69172;SDS011;56280;49.662;8.408;2022-12-18T02:56:42;99.57;;;47.92;;
69172;SDS011;56280;49.662;8.408;2022-12-18T02:59:15;104.88;;;47.28;;
69172;SDS011;56280;49.662;8.408;2022-12-18T03:04:36;106.97;;;49.42;;
69172;SDS011;56280;49.662;8.408;2022-12-18T03:07:09;121.77;;;47.70;;
69172;SDS011;56280;49.662;8.408;2022-12-18T03:09:44;126.85;;;47.28;;
69172;SDS011;56280;49.662;8.408;2022-12-18T03:12:14;105.47;;;46.08;;
69172;SDS011;56280;49.662;8.408;2022-12-18T03:14:47;107.75;;;49.65;;
69172;SDS011;56280;49.662;8.408;2022-12-18T03:17:18;97.95;;;48.90;;
69172;SDS011;56280;49.662;8.408;2022-12-18T03:19:47;97.72;;;47.55;;
69172;SDS011;56280;49.662;8.408;2022-12-18T03:22:14;101.40;;;48.03;;
69172;SDS011;56280;49.662;8.408;2022-12-18T03:24:41;104.20;;;48.83;;
69172;SDS011;56280;49.662;8.408;2022-12-18T03:27:08;99.20;;;45.88;;
69172;SDS011;56280;49.662;8.408;2022-12-18T03:29:40;100.38;;;48.22;;
69172;SDS011;56280;49.662;8.408;2022-12-18T03:32:20;95.45;;;44.47;;
69172;SDS011;56280;49.662;8.408;2022-12-18T03:34:50;95.70;;;46.80;;
69172;SDS011;56280;49.662;8.408;2022-12-18T03:37:19;94.75;;;46.72;;
69172;SDS011;56280;49.662;8.408;2022-12-18T03:39:45;91.97;;;45.70;;
69172;SDS011;56280;49.662;8.408;2022-12-18T03:42:12;90.23;;;45.10;;
69172;SDS011;56280;49.662;8.408;2022-12-18T03:55:47;84.35;;;41.45;;
69172;SDS011;56280;49.662;8.408;2022-12-18T03:58:16;82.80;;;39.90;;
69172;SDS011;56280;49.662;8.408;2022-12-18T04:00:45;85.30;;;42.47;;
69172;SDS011;56280;49.662;8.408;2022-12-18T04:03:14;82.60;;;42.75;;
69172;SDS011;56280;49.662;8.408;2022-12-18T04:05:43;77.55;;;41.28;;
69172;SDS011;56280;49.662;8.408;2022-12-18T04:08:09;78.80;;;40.73;;
69172;SDS011;56280;49.662;8.408;2022-12-18T04:10:34;81.30;;;41.27;;
69172;SDS011;56280;49.662;8.408;2022-12-18T04:12:59;82.03;;;41.10;;
69172;SDS011;56280;49.662;8.408;2022-12-18T04:15:25;73.97;;;39.30;;
69172;SDS011;56280;49.662;8.408;2022-12-18T04:17:50;80.40;;;41.23;;
69172;SDS011;56280;49.662;8.408;2022-12-18T04:20:16;78.10;;;41.93;;
69172;SDS011;56280;49.662;8.408;2022-12-18T04:22:42;76.82;;;40.00;;
69172;SDS011;56280;49.662;8.408;2022-12-18T04:25:08;78.33;;;42.33;;
69172;SDS011;56280;49.662;8.408;2022-12-18T04:27:33;74.53;;;40.22;;
69172;SDS011;56280;49.662;8.408;2022-12-18T04:29:59;79.15;;;42.20;;
69172;SDS011;56280;49.662;8.408;2022-12-18T04:32:24;73.93;;;39.30;;
69172;SDS011;56280;49.662;8.408;2022-12-18T04:34:49;74.50;;;39.10;;
69172;SDS011;56280;49.662;8.408;2022-12-18T04:37:15;76.87;;;39.73;;
69172;SDS011;56280;49.662;8.408;2022-12-18T04:39:40;71.70;;;38.47;;
69172;SDS011;56280;49.662;8.408;2022-12-18T04:42:05;74.47;;;38.63;;
69172;SDS011;56280;49.662;8.408;2022-12-18T04:44:31;75.60;;;39.83;;
69172;SDS011;56280;49.662;8.408;2022-12-18T04:46:56;75.53;;;40.03;;
69172;SDS011;56280;49.662;8.408;2022-12-18T04:49:21;78.10;;;39.93;;
69172;SDS011;56280;49.662;8.408;2022-12-18T04:51:47;70.53;;;38.37;;
69172;SDS011;56280;49.662;8.408;2022-12-18T04:54:12;74.63;;;39.33;;
69172;SDS011;56280;49.662;8.408;2022-12-18T04:56:37;74.80;;;37.90;;
69172;SDS011;56280;49.662;8.408;2022-12-18T04:59:02;73.60;;;39.53;;
69172;SDS011;56280;49.662;8.408;2022-12-18T05:01:28;71.90;;;38.17;;
69172;SDS011;56280;49.662;8.408;2022-12-18T05:03:53;73.80;;;37.73;;
69172;SDS011;56280;49.662;8.408;2022-12-18T05:06:18;73.03;;;40.23;;
69172;SDS011;56280;49.662;8.408;2022-12-18T05:08:43;70.50;;;38.53;;
69172;SDS011;56280;49.662;8.408;2022-12-18T05:11:11;75.57;;;39.93;;
69172;SDS011;56280;49.662;8.408;2022-12-18T05:13:42;73.65;;;39.42;;
69172;SDS011;56280;49.662;8.408;2022-12-18T05:16:08;69.47;;;37.10;;
69172;SDS011;56280;49.662;8.408;2022-12-18T05:18:33;68.87;;;37.20;;
69172;SDS011;56280;49.662;8.408;2022-12-18T05:20:59;74.97;;;38.60;;
69172;SDS011;56280;49.662;8.408;2022-12-18T05:23:25;71.83;;;37.63;;
69172;SDS011;56280;49.662;8.408;2022-12-18T05:25:54;71.28;;;37.97;;
69172;SDS011;56280;49.662;8.408;2022-12-18T05:28:22;69.68;;;36.78;;
69172;SDS011;56280;49.662;8.408;2022-12-18T05:30:52;69.90;;;37.40;;
69172;SDS011;56280;49.662;8.408;2022-12-18T05:33:20;67.47;;;37.72;;
69172;SDS011;56280;49.662;8.408;2022-12-18T05:35:53;69.13;;;37.55;;
69172;SDS011;56280;49.662;8.408;2022-12-18T05:38:21;66.88;;;36.40;;
69172;SDS011;56280;49.662;8.408;2022-12-18T05:40:48;69.57;;;37.47;;
69172;SDS011;56280;49.662;8.408;2022-12-18T05:43:14;72.67;;;39.70;;
69172;SDS011;56280;49.662;8.408;2022-12-18T05:45:40;66.30;;;36.85;;
69172;SDS011;56280;49.662;8.408;2022-12-18T05:48:06;68.17;;;35.57;;
69172;SDS011;56280;49.662;8.408;2022-12-18T05:50:36;68.50;;;37.50;;
69172;SDS011;56280;49.662;8.408;2022-12-18T05:53:03;69.03;;;37.33;;
69172;SDS011;56280;49.662;8.408;2022-12-18T05:55:32;69.97;;;36.67;;
69172;SDS011;56280;49.662;8.408;2022-12-18T05:58:01;69.97;;;38.42;;
69172;SDS011;56280;49.662;8.408;2022-12-18T06:00:28;70.53;;;38.97;;
69172;SDS011;56280;49.662;8.408;2022-12-18T06:02:54;67.65;;;37.70;;
69172;SDS011;56280;49.662;8.408;2022-12-18T06:05:19;70.18;;;38.10;;
69172;SDS011;56280;49.662;8.408;2022-12-18T06:07:44;68.57;;;38.33;;
69172;SDS011;56280;49.662;8.408;2022-12-18T06:10:10;68.20;;;37.57;;
69172;SDS011;56280;49.662;8.408;2022-12-18T06:12:36;70.40;;;38.03;;
69172;SDS011;56280;49.662;8.408;2022-12-18T06:15:02;73.47;;;38.03;;
69172;SDS011;56280;49.662;8.408;2022-12-18T06:17:28;73.73;;;40.53;;
69172;SDS011;56280;49.662;8.408;2022-12-18T06:19:54;79.90;;;39.85;;
69172;SDS011;56280;49.662;8.408;2022-12-18T06:22:20;81.67;;;38.73;;
69172;SDS011;56280;49.662;8.408;2022-12-18T06:24:45;83.83;;;42.10;;
69172;SDS011;56280;49.662;8.408;2022-12-18T06:27:10;82.10;;;41.33;;
69172;SDS011;56280;49.662;8.408;2022-12-18T06:29:36;79.60;;;41.63;;
69172;SDS011;56280;49.662;8.408;2022-12-18T06:32:03;84.03;;;39.53;;
69172;SDS011;56280;49.662;8.408;2022-12-18T06:34:29;83.80;;;39.90;;
69172;SDS011;56280;49.662;8.408;2022-12-18T06:36:57;86.30;;;41.97;;
69172;SDS011;56280;49.662;8.408;2022-12-18T06:39:23;84.57;;;41.13;;
69172;SDS011;56280;49.662;8.408;2022-12-18T06:41:48;85.25;;;40.92;;
69172;SDS011;56280;49.662;8.408;2022-12-18T06:44:16;81.60;;;41.20;;
69172;SDS011;56280;49.662;8.408;2022-12-18T06:46:41;82.13;;;39.53;;
69172;SDS011;56280;49.662;8.408;2022-12-18T06:49:06;77.30;;;39.70;;
69172;SDS011;56280;49.662;8.408;2022-12-18T06:51:34;73.72;;;38.63;;
69172;SDS011;56280;49.662;8.408;2022-12-18T06:53:59;77.43;;;38.13;;
69172;SDS011;56280;49.662;8.408;2022-12-18T06:56:24;76.80;;;39.27;;
69172;SDS011;56280;49.662;8.408;2022-12-18T06:58:49;77.50;;;39.53;;
69172;SDS011;56280;49.662;8.408;2022-12-18T07:01:15;73.37;;;39.47;;
69172;SDS011;56280;49.662;8.408;2022-12-18T07:03:41;76.03;;;39.53;;
69172;SDS011;56280;49.662;8.408;2022-12-18T07:06:12;75.87;;;38.03;;
69172;SDS011;56280;49.662;8.408;2022-12-18T07:08:39;75.70;;;38.75;;
69172;SDS011;56280;49.662;8.408;2022-12-18T07:11:04;71.73;;;36.50;;
69172;SDS011;56280;49.662;8.408;2022-12-18T07:13:30;72.73;;;37.30;;
69172;SDS011;56280;49.662;8.408;2022-12-18T07:15:55;71.80;;;37.10;;
69172;SDS011;56280;49.662;8.408;2022-12-18T07:18:27;70.38;;;36.45;;
69172;SDS011;56280;49.662;8.408;2022-12-18T07:20:52;71.13;;;35.33;;
69172;SDS011;56280;49.662;8.408;2022-12-18T07:23:18;70.75;;;36.33;;
69172;SDS011;56280;49.662;8.408;2022-12-18T07:25:43;75.07;;;36.93;;
69172;SDS011;56280;49.662;8.408;2022-12-18T07:28:08;71.70;;;37.13;;
69172;SDS011;56280;49.662;8.408;2022-12-18T07:30:36;75.50;;;38.97;;
69172;SDS011;56280;49.662;8.408;2022-12-18T07:33:02;79.75;;;38.97;;
69172;SDS011;56280;49.662;8.408;2022-12-18T07:35:27;75.07;;;36.93;;
69172;SDS011;56280;49.662;8.408;2022-12-18T07:37:52;71.00;;;36.83;;
69172;SDS011;56280;49.662;8.408;2022-12-18T07:40:18;78.80;;;38.43;;
69172;SDS011;56280;49.662;8.408;2022-12-18T07:42:43;90.93;;;42.05;;
69172;SDS011;56280;49.662;8.408;2022-12-18T07:45:08;97.35;;;40.92;;
69172;SDS011;56280;49.662;8.408;2022-12-18T07:47:34;102.30;;;43.38;;
69172;SDS011;56280;49.662;8.408;2022-12-18T07:50:01;99.38;;;43.05;;
69172;SDS011;56280;49.662;8.408;2022-12-18T07:52:27;90.95;;;42.70;;
69172;SDS011;56280;49.662;8.408;2022-12-18T07:54:53;89.20;;;43.23;;
69172;SDS011;56280;49.662;8.408;2022-12-18T07:57:18;148.23;;;52.13;;
69172;SDS011;56280;49.662;8.408;2022-12-18T07:59:43;153.30;;;53.27;;
69172;SDS011;56280;49.662;8.408;2022-12-18T08:02:09;136.70;;;44.60;;
69172;SDS011;56280;49.662;8.408;2022-12-18T08:04:34;99.37;;;41.90;;
69172;SDS011;56280;49.662;8.408;2022-12-18T08:06:59;118.67;;;45.87;;
69172;SDS011;56280;49.662;8.408;2022-12-18T08:09:25;105.10;;;43.33;;
69172;SDS011;56280;49.662;8.408;2022-12-18T08:11:50;133.73;;;46.27;;
69172;SDS011;56280;49.662;8.408;2022-12-18T08:14:15;140.10;;;46.45;;
69172;SDS011;56280;49.662;8.408;2022-12-18T08:16:41;118.97;;;46.33;;
69172;SDS011;56280;49.662;8.408;2022-12-18T08:19:06;88.20;;;41.73;;
69172;SDS011;56280;49.662;8.408;2022-12-18T08:21:31;83.93;;;40.20;;
69172;SDS011;56280;49.662;8.408;2022-12-18T08:23:58;80.47;;;40.97;;
69172;SDS011;56280;49.662;8.408;2022-12-18T08:26:25;76.75;;;38.55;;
69172;SDS011;56280;49.662;8.408;2022-12-18T08:28:53;67.90;;;37.70;;
69172;SDS011;56280;49.662;8.408;2022-12-18T08:31:28;64.88;;;36.30;;
69172;SDS011;56280;49.662;8.408;2022-12-18T08:33:57;66.55;;;37.50;;
69172;SDS011;56280;49.662;8.408;2022-12-18T08:36:23;67.03;;;36.67;;
69172;SDS011;56280;49.662;8.408;2022-12-18T08:38:58;85.00;;;42.42;;
69172;SDS011;56280;49.662;8.408;2022-12-18T08:41:27;76.85;;;40.58;;
69172;SDS011;56280;49.662;8.408;2022-12-18T08:43:52;50.10;;;34.57;;
69172;SDS011;56280;49.662;8.408;2022-12-18T08:46:37;53.53;;;34.97;;
69172;SDS011;56280;49.662;8.408;2022-12-18T08:49:05;54.65;;;35.70;;
69172;SDS011;56280;49.662;8.408;2022-12-18T08:51:34;77.97;;;40.50;;
69172;SDS011;56280;49.662;8.408;2022-12-18T08:54:00;70.00;;;39.58;;
69172;SDS011;56280;49.662;8.408;2022-12-18T08:56:26;81.32;;;41.72;;
69172;SDS011;56280;49.662;8.408;2022-12-18T08:58:52;67.70;;;38.60;;
69172;SDS011;56280;49.662;8.408;2022-12-18T09:01:18;51.47;;;33.85;;
69172;SDS011;56280;49.662;8.408;2022-12-18T09:03:44;59.47;;;37.25;;
69172;SDS011;56280;49.662;8.408;2022-12-18T09:06:14;54.45;;;34.30;;
69172;SDS011;56280;49.662;8.408;2022-12-18T09:08:40;64.63;;;38.40;;
69172;SDS011;56280;49.662;8.408;2022-12-18T09:11:10;64.88;;;37.67;;
69172;SDS011;56280;49.662;8.408;2022-12-18T09:13:38;66.85;;;38.20;;
69172;SDS011;56280;49.662;8.408;2022-12-18T09:16:03;75.90;;;37.73;;
69172;SDS011;56280;49.662;8.408;2022-12-18T09:18:29;69.07;;;38.43;;
69172;SDS011;56280;49.662;8.408;2022-12-18T09:20:56;67.75;;;40.50;;
69172;SDS011;56280;49.662;8.408;2022-12-18T09:23:22;68.77;;;39.87;;
69172;SDS011;56280;49.662;8.408;2022-12-18T09:25:47;104.67;;;46.47;;
69172;SDS011;56280;49.662;8.408;2022-12-18T09:28:18;101.53;;;46.38;;
69172;SDS011;56280;49.662;8.408;2022-12-18T09:30:47;104.23;;;47.83;;
69172;SDS011;56280;49.662;8.408;2022-12-18T09:33:19;138.17;;;48.30;;
69172;SDS011;56280;49.662;8.408;2022-12-18T09:35:45;97.38;;;45.80;;
69172;SDS011;56280;49.662;8.408;2022-12-18T09:38:14;106.45;;;47.55;;
69172;SDS011;56280;49.662;8.408;2022-12-18T09:40:53;99.70;;;44.70;;
69172;SDS011;56280;49.662;8.408;2022-12-18T09:43:28;110.20;;;47.10;;
69172;SDS011;56280;49.662;8.408;2022-12-18T09:46:07;101.65;;;47.85;;
69172;SDS011;56280;49.662;8.408;2022-12-18T09:48:44;92.43;;;50.57;;
69172;SDS011;56280;49.662;8.408;2022-12-18T09:51:20;86.03;;;48.15;;
69172;SDS011;56280;49.662;8.408;2022-12-18T09:54:01;89.18;;;47.70;;
69172;SDS011;56280;49.662;8.408;2022-12-18T09:56:38;83.18;;;46.35;;
69172;SDS011;56280;49.662;8.408;2022-12-18T09:59:09;87.95;;;48.13;;
69172;SDS011;56280;49.662;8.408;2022-12-18T10:01:48;89.85;;;50.08;;
69172;SDS011;56280;49.662;8.408;2022-12-18T10:04:13;88.47;;;50.63;;
69172;SDS011;56280;49.662;8.408;2022-12-18T10:12:09;89.32;;;49.83;;
69172;SDS011;56280;49.662;8.408;2022-12-18T10:14:56;86.63;;;49.08;;
69172;SDS011;56280;49.662;8.408;2022-12-18T10:17:41;85.63;;;49.40;;
69172;SDS011;56280;49.662;8.408;2022-12-18T10:20:13;87.32;;;51.60;;
69172;SDS011;56280;49.662;8.408;2022-12-18T10:23:02;85.90;;;49.53;;
69172;SDS011;56280;49.662;8.408;2022-12-18T10:28:29;88.20;;;49.87;;
69172;SDS011;56280;49.662;8.408;2022-12-18T10:30:56;81.83;;;48.00;;
69172;SDS011;56280;49.662;8.408;2022-12-18T10:33:22;84.93;;;49.37;;
69172;SDS011;56280;49.662;8.408;2022-12-18T10:35:50;87.88;;;49.35;;
69172;SDS011;56280;49.662;8.408;2022-12-18T10:43:21;99.63;;;53.55;;
69172;SDS011;56280;49.662;8.408;2022-12-18T10:51:19;104.30;;;55.83;;
69172;SDS011;56280;49.662;8.408;2022-12-18T10:56:46;92.47;;;52.33;;
69172;SDS011;56280;49.662;8.408;2022-12-18T10:59:12;89.70;;;51.30;;
69172;SDS011;56280;49.662;8.408;2022-12-18T11:01:49;88.10;;;49.97;;
69172;SDS011;56280;49.662;8.408;2022-12-18T11:06:56;96.28;;;52.38;;
69172;SDS011;56280;49.662;8.408;2022-12-18T11:09:27;92.30;;;52.88;;
69172;SDS011;56280;49.662;8.408;2022-12-18T11:11:58;91.30;;;54.30;;
69172;SDS011;56280;49.662;8.408;2022-12-18T11:14:50;89.55;;;51.58;;
69172;SDS011;56280;49.662;8.408;2022-12-18T11:20:03;88.07;;;52.28;;
69172;SDS011;56280;49.662;8.408;2022-12-18T11:22:32;86.97;;;54.50;;
69172;SDS011;56280;49.662;8.408;2022-12-18T11:27:37;86.55;;;51.45;;
69172;SDS011;56280;49.662;8.408;2022-12-18T11:30:08;86.72;;;52.75;;
69172;SDS011;56280;49.662;8.408;2022-12-18T11:33:00;86.07;;;52.05;;
69172;SDS011;56280;49.662;8.408;2022-12-18T11:44:09;87.03;;;51.47;;
69172;SDS011;56280;49.662;8.408;2022-12-18T11:46:43;92.78;;;55.95;;
69172;SDS011;56280;49.662;8.408;2022-12-18T11:52:09;89.13;;;55.57;;
69172;SDS011;56280;49.662;8.408;2022-12-18T11:54:50;88.78;;;53.35;;
69172;SDS011;56280;49.662;8.408;2022-12-18T12:05:51;97.68;;;57.47;;
69172;SDS011;56280;49.662;8.408;2022-12-18T12:08:44;93.88;;;53.55;;
69172;SDS011;56280;49.662;8.408;2022-12-18T12:22:13;100.05;;;57.25;;
69172;SDS011;56280;49.662;8.408;2022-12-18T12:30:08;103.63;;;59.03;;
69172;SDS011;56280;49.662;8.408;2022-12-18T12:40:30;102.47;;;59.63;;
69172;SDS011;56280;49.662;8.408;2022-12-18T12:43:00;103.60;;;61.65;;
69172;SDS011;56280;49.662;8.408;2022-12-18T12:45:42;101.18;;;59.35;;
69172;SDS011;56280;49.662;8.408;2022-12-18T12:51:33;101.00;;;57.67;;
69172;SDS011;56280;49.662;8.408;2022-12-18T12:54:14;98.70;;;57.35;;
69172;SDS011;56280;49.662;8.408;2022-12-18T12:56:48;102.03;;;60.20;;
69172;SDS011;56280;49.662;8.408;2022-12-18T12:59:34;99.75;;;57.20;;
69172;SDS011;56280;49.662;8.408;2022-12-18T13:04:58;100.03;;;55.67;;
69172;SDS011;56280;49.662;8.408;2022-12-18T13:07:32;98.05;;;57.00;;
69172;SDS011;56280;49.662;8.408;2022-12-18T13:15:49;104.07;;;58.00;;
69172;SDS011;56280;49.662;8.408;2022-12-18T13:18:29;108.90;;;60.50;;
69172;SDS011;56280;49.662;8.408;2022-12-18T13:21:04;108.85;;;59.17;;
69172;SDS011;56280;49.662;8.408;2022-12-18T13:23:41;106.60;;;59.90;;
69172;SDS011;56280;49.662;8.408;2022-12-18T13:31:10;104.45;;;57.88;;
69172;SDS011;56280;49.662;8.408;2022-12-18T13:33:36;108.00;;;59.20;;
69172;SDS011;56280;49.662;8.408;2022-12-18T13:41:47;104.97;;;57.37;;
69172;SDS011;56280;49.662;8.408;2022-12-18T13:47:05;99.13;;;55.40;;
69172;SDS011;56280;49.662;8.408;2022-12-18T13:49:58;100.50;;;55.63;;
69172;SDS011;56280;49.662;8.408;2022-12-18T13:52:26;94.15;;;53.72;;
69172;SDS011;56280;49.662;8.408;2022-12-18T13:54:59;95.55;;;55.28;;
69172;SDS011;56280;49.662;8.408;2022-12-18T13:57:34;98.95;;;56.85;;
69172;SDS011;56280;49.662;8.408;2022-12-18T14:02:50;94.70;;;53.47;;
69172;SDS011;56280;49.662;8.408;2022-12-18T14:05:23;96.68;;;53.45;;
69172;SDS011;56280;49.662;8.408;2022-12-18T14:07:51;95.03;;;54.03;;
69172;SDS011;56280;49.662;8.408;2022-12-18T14:10:18;94.47;;;53.63;;
69172;SDS011;56280;49.662;8.408;2022-12-18T14:12:46;94.03;;;54.27;;
69172;SDS011;56280;49.662;8.408;2022-12-18T14:18:20;92.07;;;52.50;;
69172;SDS011;56280;49.662;8.408;2022-12-18T14:20:49;91.50;;;52.30;;
69172;SDS011;56280;49.662;8.408;2022-12-18T14:25:59;97.53;;;54.60;;
69172;SDS011;56280;49.662;8.408;2022-12-18T14:28:28;98.07;;;53.87;;
69172;SDS011;56280;49.662;8.408;2022-12-18T14:30:54;98.80;;;54.28;;
69172;SDS011;56280;49.662;8.408;2022-12-18T14:33:25;101.03;;;56.00;;
69172;SDS011;56280;49.662;8.408;2022-12-18T14:35:53;98.20;;;56.50;;
69172;SDS011;56280;49.662;8.408;2022-12-18T14:38:20;99.28;;;56.05;;
69172;SDS011;56280;49.662;8.408;2022-12-18T14:40:59;98.15;;;53.90;;
69172;SDS011;56280;49.662;8.408;2022-12-18T14:43:26;100.20;;;55.88;;
69172;SDS011;56280;49.662;8.408;2022-12-18T14:45:52;99.03;;;56.40;;
69172;SDS011;56280;49.662;8.408;2022-12-18T14:48:23;100.10;;;55.92;;
69172;SDS011;56280;49.662;8.408;2022-12-18T14:51:25;99.07;;;55.37;;
69172;SDS011;56280;49.662;8.408;2022-12-18T14:53:57;98.90;;;56.63;;
69172;SDS011;56280;49.662;8.408;2022-12-18T14:56:36;115.68;;;72.15;;
69172;SDS011;56280;49.662;8.408;2022-12-18T14:59:15;94.20;;;54.00;;
69172;SDS011;56280;49.662;8.408;2022-12-18T15:01:46;96.45;;;54.65;;
69172;SDS011;56280;49.662;8.408;2022-12-18T15:04:24;91.43;;;52.92;;
69172;SDS011;56280;49.662;8.408;2022-12-18T15:13:05;95.53;;;52.75;;
69172;SDS011;56280;49.662;8.408;2022-12-18T15:17:59;90.63;;;53.10;;
69172;SDS011;56280;49.662;8.408;2022-12-18T15:20:25;88.47;;;52.87;;
69172;SDS011;56280;49.662;8.408;2022-12-18T15:22:53;93.10;;;53.93;;
69172;SDS011;56280;49.662;8.408;2022-12-18T15:25:26;87.78;;;52.67;;
69172;SDS011;56280;49.662;8.408;2022-12-18T15:27:56;86.05;;;51.40;;
69172;SDS011;56280;49.662;8.408;2022-12-18T15:30:22;90.10;;;50.97;;
69172;SDS011;56280;49.662;8.408;2022-12-18T15:32:49;85.75;;;51.78;;
69172;SDS011;56280;49.662;8.408;2022-12-18T15:37:43;95.77;;;58.00;;
69172;SDS011;56280;49.662;8.408;2022-12-18T15:40:13;98.63;;;61.20;;
69172;SDS011;56280;49.662;8.408;2022-12-18T15:42:50;106.53;;;64.22;;
69172;SDS011;56280;49.662;8.408;2022-12-18T15:45:37;103.85;;;63.33;;
69172;SDS011;56280;49.662;8.408;2022-12-18T15:48:06;93.63;;;56.30;;
69172;SDS011;56280;49.662;8.408;2022-12-18T15:50:42;97.63;;;56.93;;
69172;SDS011;56280;49.662;8.408;2022-12-18T15:53:07;96.45;;;57.08;;
69172;SDS011;56280;49.662;8.408;2022-12-18T15:55:34;105.57;;;61.38;;
69172;SDS011;56280;49.662;8.408;2022-12-18T15:58:18;102.93;;;60.25;;
69172;SDS011;56280;49.662;8.408;2022-12-18T16:00:45;100.13;;;59.75;;
69172;SDS011;56280;49.662;8.408;2022-12-18T16:03:10;104.15;;;60.58;;
69172;SDS011;56280;49.662;8.408;2022-12-18T16:05:35;97.60;;;58.25;;
69172;SDS011;56280;49.662;8.408;2022-12-18T16:08:01;98.15;;;56.85;;
69172;SDS011;56280;49.662;8.408;2022-12-18T16:10:27;100.57;;;59.97;;
69172;SDS011;56280;49.662;8.408;2022-12-18T16:12:53;102.65;;;62.03;;
69172;SDS011;56280;49.662;8.408;2022-12-18T16:15:18;100.20;;;59.77;;
69172;SDS011;56280;49.662;8.408;2022-12-18T16:17:43;96.75;;;57.83;;
69172;SDS011;56280;49.662;8.408;2022-12-18T16:20:16;92.37;;;58.43;;
69172;SDS011;56280;49.662;8.408;2022-12-18T16:22:44;98.20;;;58.42;;
69172;SDS011;56280;49.662;8.408;2022-12-18T16:25:26;96.50;;;59.37;;
69172;SDS011;56280;49.662;8.408;2022-12-18T16:27:55;97.80;;;58.33;;
69172;SDS011;56280;49.662;8.408;2022-12-18T16:30:28;99.07;;;59.22;;
69172;SDS011;56280;49.662;8.408;2022-12-18T16:33:02;97.80;;;58.40;;
69172;SDS011;56280;49.662;8.408;2022-12-18T16:35:36;95.03;;;59.67;;
69172;SDS011;56280;49.662;8.408;2022-12-18T16:38:05;96.93;;;58.83;;
69172;SDS011;56280;49.662;8.408;2022-12-18T16:40:31;101.38;;;60.65;;
69172;SDS011;56280;49.662;8.408;2022-12-18T16:42:57;107.07;;;64.10;;
69172;SDS011;56280;49.662;8.408;2022-12-18T16:45:22;107.40;;;61.38;;
69172;SDS011;56280;49.662;8.408;2022-12-18T16:47:47;99.75;;;58.95;;